createdAt,value
2017-08-21T00:00:24.640Z,76.60
2017-08-21T00:00:57.160Z,76.40
2017-08-21T00:01:30.441Z,76.00
2017-08-21T00:02:03.000Z,76.00
2017-08-21T00:02:35.514Z,76.20
2017-08-21T00:03:08.805Z,76.40
2017-08-21T00:03:41.370Z,76.40
2017-08-21T00:04:13.917Z,76.60
2017-08-21T00:04:46.452Z,77.20
2017-08-21T00:05:18.976Z,76.50
2017-08-21T00:05:51.496Z,76.40
2017-08-21T00:06:24.786Z,76.90
2017-08-21T00:06:57.410Z,76.80
2017-08-21T00:07:29.929Z,76.90
2017-08-21T00:08:02.435Z,76.60
2017-08-21T00:08:34.975Z,77.10
2017-08-21T00:09:07.539Z,76.90
2017-08-21T00:09:40.060Z,77.00
2017-08-21T00:10:13.310Z,76.50
2017-08-21T00:10:45.843Z,76.50
2017-08-21T00:11:19.112Z,77.10
2017-08-21T00:11:51.652Z,77.00
2017-08-21T00:12:24.208Z,76.50
2017-08-21T00:12:56.738Z,76.40
2017-08-21T00:13:30.014Z,76.20
2017-08-21T00:14:02.556Z,76.10
2017-08-21T00:14:35.099Z,76.50
2017-08-21T00:15:07.634Z,76.70
2017-08-21T00:15:40.128Z,76.70
2017-08-21T00:16:12.659Z,77.20
2017-08-21T00:16:45.166Z,77.10
2017-08-21T00:17:17.677Z,76.80
2017-08-21T00:17:50.193Z,76.80
2017-08-21T00:18:22.715Z,76.90
2017-08-21T00:18:55.273Z,76.70
2017-08-21T00:19:27.806Z,76.80
2017-08-21T00:20:00.343Z,76.80
2017-08-21T00:20:32.846Z,76.40
2017-08-21T00:21:05.369Z,76.60
2017-08-21T00:21:37.906Z,76.80
2017-08-21T00:22:10.450Z,77.30
2017-08-21T00:22:42.989Z,77.00
2017-08-21T00:23:15.510Z,76.80
2017-08-21T00:23:48.025Z,76.90
2017-08-21T00:24:20.562Z,76.70
2017-08-21T00:24:53.083Z,76.70
2017-08-21T00:25:25.628Z,76.90
2017-08-21T00:25:58.165Z,77.00
2017-08-21T00:26:30.698Z,77.00
2017-08-21T00:27:03.213Z,77.00
2017-08-21T00:27:35.711Z,77.20
2017-08-21T00:28:08.239Z,76.80
2017-08-21T00:28:40.766Z,77.00
2017-08-21T00:29:13.303Z,77.30
2017-08-21T00:29:45.825Z,77.50
2017-08-21T00:30:18.354Z,77.30
2017-08-21T00:30:50.889Z,77.10
2017-08-21T00:31:23.412Z,76.90
2017-08-21T00:31:55.939Z,76.80
2017-08-21T00:32:28.470Z,76.70
2017-08-21T00:33:00.997Z,76.70
2017-08-21T00:33:33.499Z,77.10
2017-08-21T00:34:06.675Z,77.50
2017-08-21T00:50:42.320Z,77.40
2017-08-21T00:51:14.982Z,77.40
2017-08-21T00:51:47.517Z,77.40
2017-08-21T00:52:21.476Z,77.30
2017-08-21T00:52:54.024Z,77.30
2017-08-21T00:53:40.119Z,77.50
2017-08-21T00:54:12.652Z,77.30
2017-08-21T00:54:45.300Z,77.10
2017-08-21T00:55:17.810Z,77.30
2017-08-21T00:55:50.444Z,77.80
2017-08-21T00:56:22.969Z,78.40
2017-08-21T00:56:55.712Z,78.10
2017-08-21T00:57:28.243Z,77.90
2017-08-21T00:58:00.760Z,77.70
2017-08-21T00:58:33.284Z,77.60
2017-08-21T00:59:05.813Z,77.50
2017-08-21T01:04:37.565Z,77.00
2017-08-21T01:05:10.086Z,77.40
2017-08-21T01:05:42.600Z,77.00
2017-08-21T01:07:42.438Z,77.30
2017-08-21T01:08:15.711Z,77.30
2017-08-21T01:08:48.260Z,77.30
2017-08-21T01:09:20.799Z,77.20
2017-08-21T01:09:53.353Z,77.40
2017-08-21T01:10:25.876Z,77.30
2017-08-21T01:10:59.171Z,77.90
2017-08-21T01:11:31.716Z,77.60
2017-08-21T01:12:04.252Z,77.60
2017-08-21T01:12:36.779Z,77.80
2017-08-21T01:13:09.336Z,78.10
2017-08-21T01:13:41.888Z,78.20
2017-08-21T01:14:14.419Z,78.10
2017-08-21T01:14:46.938Z,77.80
2017-08-21T01:15:19.479Z,77.70
2017-08-21T01:15:52.008Z,77.60
2017-08-21T01:16:24.521Z,77.40
2017-08-21T01:16:57.060Z,77.30
2017-08-21T01:17:29.587Z,77.40
2017-08-21T01:18:02.113Z,77.40
2017-08-21T01:18:34.844Z,77.30
2017-08-21T01:28:52.411Z,77.40
2017-08-21T01:29:24.932Z,77.60
2017-08-21T01:29:57.438Z,77.60
2017-08-21T01:30:29.950Z,77.60
2017-08-21T01:31:02.460Z,77.90
2017-08-21T01:31:34.965Z,77.90
2017-08-21T01:32:07.502Z,77.80
2017-08-21T01:32:40.049Z,78.10
2017-08-21T01:33:12.571Z,78.00
2017-08-21T01:33:45.106Z,78.00
2017-08-21T01:34:17.647Z,77.90
2017-08-21T01:34:50.931Z,78.30
2017-08-21T01:35:23.440Z,78.20
2017-08-21T01:35:55.974Z,78.20
2017-08-21T01:36:28.491Z,78.20
2017-08-21T01:37:01.013Z,78.00
2017-08-21T01:37:33.513Z,78.20
2017-08-21T01:38:06.034Z,78.50
2017-08-21T01:38:38.587Z,78.50
2017-08-21T01:39:11.110Z,78.50
2017-08-21T01:39:43.629Z,78.40
2017-08-21T01:40:16.168Z,78.20
2017-08-21T01:47:14.580Z,78.50
2017-08-21T01:47:47.097Z,78.50
2017-08-21T01:48:19.632Z,78.10
2017-08-21T01:48:52.161Z,78.30
2017-08-21T01:49:25.461Z,78.60
2017-08-21T01:49:57.992Z,78.40
2017-08-21T01:50:30.533Z,78.60
2017-08-21T01:51:03.043Z,78.80
2017-08-21T03:10:07.423Z,79.50
2017-08-21T03:10:40.200Z,79.80
2017-08-21T03:11:12.741Z,79.90
2017-08-21T03:11:45.267Z,79.90
2017-08-21T03:12:17.791Z,79.80
2017-08-21T03:12:50.301Z,79.60
2017-08-21T03:13:22.817Z,79.80
2017-08-21T03:13:55.332Z,80.10
2017-08-21T03:14:27.908Z,80.00
2017-08-21T03:15:00.446Z,80.00
2017-08-21T03:15:32.976Z,79.90
2017-08-21T03:16:05.512Z,79.70
2017-08-21T03:16:38.077Z,79.70
2017-08-21T03:17:10.603Z,79.80
2017-08-21T03:17:43.130Z,79.70
2017-08-21T03:18:15.661Z,79.70
2017-08-21T03:18:48.216Z,79.70
2017-08-21T03:19:20.749Z,79.70
2017-08-21T03:19:53.265Z,79.70
2017-08-21T03:22:00.949Z,79.60
2017-08-21T03:22:33.474Z,79.70
2017-08-21T03:23:06.012Z,79.90
2017-08-21T03:23:38.539Z,79.90
2017-08-21T03:24:11.046Z,79.70
2017-08-21T03:24:43.553Z,79.90
2017-08-21T03:25:16.119Z,79.80
2017-08-21T03:25:48.660Z,79.80
2017-08-21T03:26:22.940Z,79.90
2017-08-21T03:26:55.457Z,80.60
2017-08-21T03:27:28.005Z,79.90
2017-08-21T03:28:00.526Z,79.70
2017-08-21T03:28:33.047Z,79.70
2017-08-21T03:29:05.567Z,79.60
2017-08-21T03:29:38.101Z,79.60
2017-08-21T03:58:06.401Z,80.10
2017-08-21T03:58:39.035Z,80.20
2017-08-21T03:59:11.657Z,80.50
2017-08-21T03:59:44.199Z,80.50
2017-08-21T04:00:17.036Z,80.50
2017-08-21T04:03:13.424Z,80.70
2017-08-21T04:03:46.055Z,80.50
2017-08-21T04:04:18.642Z,80.50
2017-08-21T04:05:30.584Z,80.50
2017-08-21T04:06:03.112Z,80.70
2017-08-21T04:06:35.689Z,80.70
2017-08-21T04:07:08.214Z,80.60
2017-08-21T04:07:40.764Z,80.70
2017-08-21T04:08:13.339Z,80.60
2017-08-21T04:08:45.845Z,80.10
2017-08-21T04:09:18.381Z,80.70
2017-08-21T04:09:50.947Z,80.70
2017-08-21T04:33:45.476Z,80.60
2017-08-21T04:34:18.033Z,80.60
2017-08-21T04:34:51.544Z,80.80
2017-08-21T04:35:24.053Z,80.80
2017-08-21T04:35:57.339Z,81.70
2017-08-21T04:36:29.868Z,81.00
2017-08-21T04:37:03.266Z,80.90
2017-08-21T04:37:35.802Z,80.90
2017-08-21T04:38:08.319Z,80.80
2017-08-21T04:38:41.627Z,80.90
2017-08-21T04:39:15.177Z,80.90
2017-08-21T04:39:47.792Z,81.00
2017-08-21T04:40:21.189Z,81.00
2017-08-21T04:40:53.725Z,81.00
2017-08-21T04:41:26.257Z,80.90
2017-08-21T04:41:58.838Z,80.80
2017-08-21T04:42:31.380Z,81.10
2017-08-21T04:43:03.902Z,81.20
2017-08-21T04:43:36.437Z,81.00
2017-08-21T04:44:09.737Z,80.80
2017-08-21T04:44:42.283Z,80.80
2017-08-21T04:45:14.803Z,80.70
2017-08-21T04:45:47.340Z,80.80
2017-08-21T04:46:19.868Z,81.00
2017-08-21T04:46:52.397Z,80.90
2017-08-21T04:47:24.911Z,80.80
2017-08-21T04:48:00.390Z,80.80
2017-08-21T04:48:32.924Z,80.80
2017-08-21T04:49:05.444Z,80.80
2017-08-21T04:49:37.979Z,80.80
2017-08-21T04:50:10.548Z,80.80
2017-08-21T04:50:43.107Z,80.70
2017-08-21T04:51:15.622Z,80.80
2017-08-21T05:18:40.346Z,79.80
2017-08-21T05:19:12.959Z,80.00
2017-08-21T05:19:45.582Z,80.20
2017-08-21T05:21:55.920Z,80.30
2017-08-21T05:22:28.530Z,80.20
2017-08-21T05:23:01.251Z,80.40
2017-08-21T05:23:34.060Z,80.50
2017-08-21T05:24:08.581Z,80.30
2017-08-21T05:24:42.513Z,80.10
2017-08-21T05:25:15.289Z,80.20
2017-08-21T05:25:47.844Z,80.20
